sensor_id;sensor_type;location;lat;lon;timestamp;temperature;humidity
41437;DHT22;27178;49.460;10.850;2022-10-13T00:01:21;14.60;77.60
41437;DHT22;27178;49.460;10.850;2022-10-13T00:03:49;14.50;77.50
41437;DHT22;27178;49.460;10.850;2022-10-13T00:06:20;14.50;77.60
41437;DHT22;27178;49.460;10.850;2022-10-13T00:08:49;14.50;77.70
41437;DHT22;27178;49.460;10.850;2022-10-13T00:11:20;14.50;77.70
41437;DHT22;27178;49.460;10.850;2022-10-13T00:13:49;14.50;77.80
41437;DHT22;27178;49.460;10.850;2022-10-13T00:16:20;14.50;77.80
41437;DHT22;27178;49.460;10.850;2022-10-13T00:18:49;14.40;77.80
41437;DHT22;27178;49.460;10.850;2022-10-13T00:21:18;14.40;77.80
41437;DHT22;27178;49.460;10.850;2022-10-13T00:23:48;14.40;78.00
41437;DHT22;27178;49.460;10.850;2022-10-13T00:26:18;14.30;78.00
41437;DHT22;27178;49.460;10.850;2022-10-13T00:28:47;14.30;78.30
41437;DHT22;27178;49.460;10.850;2022-10-13T00:31:21;14.30;78.20
41437;DHT22;27178;49.460;10.850;2022-10-13T00:33:50;14.30;78.50
41437;DHT22;27178;49.460;10.850;2022-10-13T00:36:20;14.30;78.60
41437;DHT22;27178;49.460;10.850;2022-10-13T00:38:48;14.20;78.60
41437;DHT22;27178;49.460;10.850;2022-10-13T00:41:17;14.20;78.60
41437;DHT22;27178;49.460;10.850;2022-10-13T00:43:53;14.20;78.70
41437;DHT22;27178;49.460;10.850;2022-10-13T00:46:26;14.20;79.00
41437;DHT22;27178;49.460;10.850;2022-10-13T00:48:55;14.20;79.10
41437;DHT22;27178;49.460;10.850;2022-10-13T00:51:29;14.10;79.10
41437;DHT22;27178;49.460;10.850;2022-10-13T00:53:58;14.10;79.30
41437;DHT22;27178;49.460;10.850;2022-10-13T00:56:27;14.20;79.50
41437;DHT22;27178;49.460;10.850;2022-10-13T00:58:56;14.10;79.30
41437;DHT22;27178;49.460;10.850;2022-10-13T01:01:26;14.10;79.20
41437;DHT22;27178;49.460;10.850;2022-10-13T01:03:55;14.10;78.80
41437;DHT22;27178;49.460;10.850;2022-10-13T01:06:24;14.10;78.40
41437;DHT22;27178;49.460;10.850;2022-10-13T01:08:52;14.10;78.10
41437;DHT22;27178;49.460;10.850;2022-10-13T01:11:37;14.00;77.80
41437;DHT22;27178;49.460;10.850;2022-10-13T01:14:15;14.00;78.20
41437;DHT22;27178;49.460;10.850;2022-10-13T01:16:51;14.00;78.30
41437;DHT22;27178;49.460;10.850;2022-10-13T01:22:44;13.90;78.30
41437;DHT22;27178;49.460;10.850;2022-10-13T01:25:31;13.90;78.00
41437;DHT22;27178;49.460;10.850;2022-10-13T01:28:18;13.80;77.70
41437;DHT22;27178;49.460;10.850;2022-10-13T01:30:59;13.80;77.60
41437;DHT22;27178;49.460;10.850;2022-10-13T01:33:34;13.80;77.40
41437;DHT22;27178;49.460;10.850;2022-10-13T01:36:16;13.70;77.50
41437;DHT22;27178;49.460;10.850;2022-10-13T01:38:53;13.70;77.80
41437;DHT22;27178;49.460;10.850;2022-10-13T01:41:26;13.60;77.90
41437;DHT22;27178;49.460;10.850;2022-10-13T01:44:01;13.50;78.00
41437;DHT22;27178;49.460;10.850;2022-10-13T01:46:35;13.50;78.40
41437;DHT22;27178;49.460;10.850;2022-10-13T01:49:08;13.50;78.60
41437;DHT22;27178;49.460;10.850;2022-10-13T01:51:38;13.50;78.80
41437;DHT22;27178;49.460;10.850;2022-10-13T01:54:07;13.50;78.90
41437;DHT22;27178;49.460;10.850;2022-10-13T01:56:36;13.50;79.00
41437;DHT22;27178;49.460;10.850;2022-10-13T01:59:08;13.50;79.30
41437;DHT22;27178;49.460;10.850;2022-10-13T02:01:47;13.50;79.50
41437;DHT22;27178;49.460;10.850;2022-10-13T02:04:27;13.50;79.80
41437;DHT22;27178;49.460;10.850;2022-10-13T02:07:01;13.60;79.70
41437;DHT22;27178;49.460;10.850;2022-10-13T02:09:34;13.60;79.60
41437;DHT22;27178;49.460;10.850;2022-10-13T02:12:07;13.60;79.60
41437;DHT22;27178;49.460;10.850;2022-10-13T02:14:38;13.60;79.90
41437;DHT22;27178;49.460;10.850;2022-10-13T02:17:10;13.60;80.30
41437;DHT22;27178;49.460;10.850;2022-10-13T02:19:39;13.60;80.60
41437;DHT22;27178;49.460;10.850;2022-10-13T02:22:10;13.70;80.60
41437;DHT22;27178;49.460;10.850;2022-10-13T02:24:42;13.70;80.30
41437;DHT22;27178;49.460;10.850;2022-10-13T02:27:10;13.70;79.80
41437;DHT22;27178;49.460;10.850;2022-10-13T02:29:48;13.70;79.50
41437;DHT22;27178;49.460;10.850;2022-10-13T02:32:18;13.70;79.30
41437;DHT22;27178;49.460;10.850;2022-10-13T02:34:49;13.70;79.00
41437;DHT22;27178;49.460;10.850;2022-10-13T02:37:17;13.70;78.90
41437;DHT22;27178;49.460;10.850;2022-10-13T02:39:45;13.70;78.90
41437;DHT22;27178;49.460;10.850;2022-10-13T02:42:14;13.70;78.90
41437;DHT22;27178;49.460;10.850;2022-10-13T02:44:42;13.60;78.70
41437;DHT22;27178;49.460;10.850;2022-10-13T02:47:10;13.60;78.80
41437;DHT22;27178;49.460;10.850;2022-10-13T02:49:40;13.60;78.90
41437;DHT22;27178;49.460;10.850;2022-10-13T02:52:08;13.60;79.10
41437;DHT22;27178;49.460;10.850;2022-10-13T02:54:58;13.60;79.90
41437;DHT22;27178;49.460;10.850;2022-10-13T02:57:27;13.60;80.60
41437;DHT22;27178;49.460;10.850;2022-10-13T02:59:55;13.60;81.30
41437;DHT22;27178;49.460;10.850;2022-10-13T03:02:25;13.60;81.70
41437;DHT22;27178;49.460;10.850;2022-10-13T03:04:55;13.70;82.00
41437;DHT22;27178;49.460;10.850;2022-10-13T03:07:23;13.70;82.10
41437;DHT22;27178;49.460;10.850;2022-10-13T03:09:51;13.80;82.10
41437;DHT22;27178;49.460;10.850;2022-10-13T03:12:20;13.80;81.60
41437;DHT22;27178;49.460;10.850;2022-10-13T03:14:48;13.80;81.20
41437;DHT22;27178;49.460;10.850;2022-10-13T03:17:17;13.90;80.90
41437;DHT22;27178;49.460;10.850;2022-10-13T03:19:45;13.90;81.00
41437;DHT22;27178;49.460;10.850;2022-10-13T03:22:15;13.90;81.30
41437;DHT22;27178;49.460;10.850;2022-10-13T03:24:44;13.90;81.20
41437;DHT22;27178;49.460;10.850;2022-10-13T03:27:13;13.90;80.60
41437;DHT22;27178;49.460;10.850;2022-10-13T03:29:41;13.90;80.20
41437;DHT22;27178;49.460;10.850;2022-10-13T03:32:10;13.90;79.80
41437;DHT22;27178;49.460;10.850;2022-10-13T03:34:38;13.90;79.60
41437;DHT22;27178;49.460;10.850;2022-10-13T03:37:07;13.80;79.30
41437;DHT22;27178;49.460;10.850;2022-10-13T03:39:37;13.80;79.40
41437;DHT22;27178;49.460;10.850;2022-10-13T03:42:05;13.80;80.40
41437;DHT22;27178;49.460;10.850;2022-10-13T03:44:34;13.70;79.40
41437;DHT22;27178;49.460;10.850;2022-10-13T03:47:02;13.70;79.40
41437;DHT22;27178;49.460;10.850;2022-10-13T03:49:30;13.70;79.30
41437;DHT22;27178;49.460;10.850;2022-10-13T03:51:59;13.70;79.40
41437;DHT22;27178;49.460;10.850;2022-10-13T03:54:27;13.70;79.90
41437;DHT22;27178;49.460;10.850;2022-10-13T03:56:57;13.60;80.50
41437;DHT22;27178;49.460;10.850;2022-10-13T03:59:25;13.60;81.20
41437;DHT22;27178;49.460;10.850;2022-10-13T04:02:01;13.60;81.50
41437;DHT22;27178;49.460;10.850;2022-10-13T04:04:29;13.70;81.90
41437;DHT22;27178;49.460;10.850;2022-10-13T04:06:58;13.70;82.00
41437;DHT22;27178;49.460;10.850;2022-10-13T04:09:26;13.70;82.10
41437;DHT22;27178;49.460;10.850;2022-10-13T04:11:54;13.80;82.20
41437;DHT22;27178;49.460;10.850;2022-10-13T04:14:24;13.80;82.10
41437;DHT22;27178;49.460;10.850;2022-10-13T04:16:53;13.80;82.10
41437;DHT22;27178;49.460;10.850;2022-10-13T04:19:21;13.90;82.10
41437;DHT22;27178;49.460;10.850;2022-10-13T04:21:50;13.90;82.10
41437;DHT22;27178;49.460;10.850;2022-10-13T04:24:18;14.00;82.10
41437;DHT22;27178;49.460;10.850;2022-10-13T04:26:47;14.00;81.90
41437;DHT22;27178;49.460;10.850;2022-10-13T04:29:15;14.00;81.70
41437;DHT22;27178;49.460;10.850;2022-10-13T04:31:45;14.00;81.60
41437;DHT22;27178;49.460;10.850;2022-10-13T04:34:13;14.00;81.70
41437;DHT22;27178;49.460;10.850;2022-10-13T04:36:42;14.00;81.70
41437;DHT22;27178;49.460;10.850;2022-10-13T04:39:11;14.00;81.70
41437;DHT22;27178;49.460;10.850;2022-10-13T04:41:39;14.00;81.70
41437;DHT22;27178;49.460;10.850;2022-10-13T04:44:07;14.00;81.80
41437;DHT22;27178;49.460;10.850;2022-10-13T04:46:36;14.00;81.80
41437;DHT22;27178;49.460;10.850;2022-10-13T04:49:05;14.00;81.90
41437;DHT22;27178;49.460;10.850;2022-10-13T04:51:34;14.00;81.90
41437;DHT22;27178;49.460;10.850;2022-10-13T04:54:02;14.00;81.90
41437;DHT22;27178;49.460;10.850;2022-10-13T04:56:32;14.00;81.90
41437;DHT22;27178;49.460;10.850;2022-10-13T04:59:00;14.10;82.00
41437;DHT22;27178;49.460;10.850;2022-10-13T05:01:28;14.10;82.10
41437;DHT22;27178;49.460;10.850;2022-10-13T05:03:58;14.10;81.90
41437;DHT22;27178;49.460;10.850;2022-10-13T05:06:30;14.10;81.90
41437;DHT22;27178;49.460;10.850;2022-10-13T05:08:59;14.10;81.80
41437;DHT22;27178;49.460;10.850;2022-10-13T05:11:28;14.20;81.80
41437;DHT22;27178;49.460;10.850;2022-10-13T05:13:57;14.20;81.70
41437;DHT22;27178;49.460;10.850;2022-10-13T05:16:26;14.20;81.60
41437;DHT22;27178;49.460;10.850;2022-10-13T05:18:55;14.20;81.60
41437;DHT22;27178;49.460;10.850;2022-10-13T05:21:25;14.20;81.60
41437;DHT22;27178;49.460;10.850;2022-10-13T05:23:56;14.20;81.70
41437;DHT22;27178;49.460;10.850;2022-10-13T05:26:26;14.20;81.60
41437;DHT22;27178;49.460;10.850;2022-10-13T05:28:58;14.20;81.70
41437;DHT22;27178;49.460;10.850;2022-10-13T05:31:28;14.20;81.70
41437;DHT22;27178;49.460;10.850;2022-10-13T05:33:57;14.20;81.70
41437;DHT22;27178;49.460;10.850;2022-10-13T05:36:28;14.20;81.60
41437;DHT22;27178;49.460;10.850;2022-10-13T05:39:00;14.20;81.70
41437;DHT22;27178;49.460;10.850;2022-10-13T05:41:29;14.20;81.70
41437;DHT22;27178;49.460;10.850;2022-10-13T05:44:00;14.20;81.60
41437;DHT22;27178;49.460;10.850;2022-10-13T05:46:28;14.20;81.60
41437;DHT22;27178;49.460;10.850;2022-10-13T05:48:57;14.20;81.60
41437;DHT22;27178;49.460;10.850;2022-10-13T05:51:29;14.20;81.70
41437;DHT22;27178;49.460;10.850;2022-10-13T05:54:02;14.30;81.70
41437;DHT22;27178;49.460;10.850;2022-10-13T05:56:34;14.20;81.60
41437;DHT22;27178;49.460;10.850;2022-10-13T05:59:06;14.30;81.70
41437;DHT22;27178;49.460;10.850;2022-10-13T06:01:38;14.30;81.80
41437;DHT22;27178;49.460;10.850;2022-10-13T06:04:10;14.30;81.70
41437;DHT22;27178;49.460;10.850;2022-10-13T06:06:39;14.30;81.80
41437;DHT22;27178;49.460;10.850;2022-10-13T06:09:09;14.30;81.90
41437;DHT22;27178;49.460;10.850;2022-10-13T06:11:37;14.30;82.10
41437;DHT22;27178;49.460;10.850;2022-10-13T06:14:05;14.30;82.00
41437;DHT22;27178;49.460;10.850;2022-10-13T06:16:34;14.30;81.90
41437;DHT22;27178;49.460;10.850;2022-10-13T06:19:03;14.30;82.10
41437;DHT22;27178;49.460;10.850;2022-10-13T06:21:33;14.30;82.10
41437;DHT22;27178;49.460;10.850;2022-10-13T06:24:01;14.30;82.20
41437;DHT22;27178;49.460;10.850;2022-10-13T06:26:31;14.30;82.10
41437;DHT22;27178;49.460;10.850;2022-10-13T06:28:59;14.30;82.30
41437;DHT22;27178;49.460;10.850;2022-10-13T06:31:27;14.40;82.30
41437;DHT22;27178;49.460;10.850;2022-10-13T06:33:57;14.40;82.30
41437;DHT22;27178;49.460;10.850;2022-10-13T06:36:25;14.40;82.30
41437;DHT22;27178;49.460;10.850;2022-10-13T06:38:53;14.40;82.30
41437;DHT22;27178;49.460;10.850;2022-10-13T06:41:22;14.40;82.40
41437;DHT22;27178;49.460;10.850;2022-10-13T06:43:51;14.40;82.50
41437;DHT22;27178;49.460;10.850;2022-10-13T06:46:19;14.40;82.60
41437;DHT22;27178;49.460;10.850;2022-10-13T06:48:48;14.40;82.50
41437;DHT22;27178;49.460;10.850;2022-10-13T06:51:17;14.40;82.60
41437;DHT22;27178;49.460;10.850;2022-10-13T06:53:46;14.40;82.60
41437;DHT22;27178;49.460;10.850;2022-10-13T06:56:14;14.40;82.70
41437;DHT22;27178;49.460;10.850;2022-10-13T06:58:43;14.40;82.60
41437;DHT22;27178;49.460;10.850;2022-10-13T07:01:12;14.50;82.80
41437;DHT22;27178;49.460;10.850;2022-10-13T07:03:41;14.50;82.80
41437;DHT22;27178;49.460;10.850;2022-10-13T07:06:09;14.50;82.80
41437;DHT22;27178;49.460;10.850;2022-10-13T07:08:38;14.50;82.80
41437;DHT22;27178;49.460;10.850;2022-10-13T07:11:07;14.60;83.00
41437;DHT22;27178;49.460;10.850;2022-10-13T07:13:41;14.60;83.00
41437;DHT22;27178;49.460;10.850;2022-10-13T07:16:14;14.60;83.00
41437;DHT22;27178;49.460;10.850;2022-10-13T07:18:43;14.60;83.00
41437;DHT22;27178;49.460;10.850;2022-10-13T07:21:13;14.60;83.00
41437;DHT22;27178;49.460;10.850;2022-10-13T07:23:42;14.70;83.00
41437;DHT22;27178;49.460;10.850;2022-10-13T07:26:12;14.70;82.80
41437;DHT22;27178;49.460;10.850;2022-10-13T07:28:42;14.70;82.80
41437;DHT22;27178;49.460;10.850;2022-10-13T07:31:12;14.80;83.00
41437;DHT22;27178;49.460;10.850;2022-10-13T07:33:44;14.80;82.90
41437;DHT22;27178;49.460;10.850;2022-10-13T07:36:13;14.80;83.00
41437;DHT22;27178;49.460;10.850;2022-10-13T07:38:41;14.80;82.70
41437;DHT22;27178;49.460;10.850;2022-10-13T07:41:11;14.90;82.80
41437;DHT22;27178;49.460;10.850;2022-10-13T07:43:40;14.90;83.00
41437;DHT22;27178;49.460;10.850;2022-10-13T07:46:10;14.90;83.10
41437;DHT22;27178;49.460;10.850;2022-10-13T07:48:39;14.90;83.20
41437;DHT22;27178;49.460;10.850;2022-10-13T07:51:11;15.00;83.20
41437;DHT22;27178;49.460;10.850;2022-10-13T07:53:40;15.00;83.10
41437;DHT22;27178;49.460;10.850;2022-10-13T07:56:10;15.00;83.10
41437;DHT22;27178;49.460;10.850;2022-10-13T07:58:41;15.00;83.20
41437;DHT22;27178;49.460;10.850;2022-10-13T08:01:11;15.00;83.50
41437;DHT22;27178;49.460;10.850;2022-10-13T08:03:40;15.10;83.40
41437;DHT22;27178;49.460;10.850;2022-10-13T08:06:17;15.10;83.50
41437;DHT22;27178;49.460;10.850;2022-10-13T08:08:45;15.20;83.70
41437;DHT22;27178;49.460;10.850;2022-10-13T08:11:15;15.20;83.70
41437;DHT22;27178;49.460;10.850;2022-10-13T08:13:46;15.20;83.80
41437;DHT22;27178;49.460;10.850;2022-10-13T08:16:15;15.20;83.90
41437;DHT22;27178;49.460;10.850;2022-10-13T08:18:44;15.20;83.80
41437;DHT22;27178;49.460;10.850;2022-10-13T08:21:14;15.30;83.60
41437;DHT22;27178;49.460;10.850;2022-10-13T08:24:06;15.30;83.80
41437;DHT22;27178;49.460;10.850;2022-10-13T08:26:36;15.30;83.50
41437;DHT22;27178;49.460;10.850;2022-10-13T08:29:05;15.40;83.50
41437;DHT22;27178;49.460;10.850;2022-10-13T08:31:50;15.40;83.70
41437;DHT22;27178;49.460;10.850;2022-10-13T08:34:20;15.40;83.60
41437;DHT22;27178;49.460;10.850;2022-10-13T08:36:48;15.40;83.70
41437;DHT22;27178;49.460;10.850;2022-10-13T08:39:21;15.50;83.70
41437;DHT22;27178;49.460;10.850;2022-10-13T08:41:50;15.50;83.70
41437;DHT22;27178;49.460;10.850;2022-10-13T08:44:22;15.50;83.50
41437;DHT22;27178;49.460;10.850;2022-10-13T08:47:17;15.60;83.40
41437;DHT22;27178;49.460;10.850;2022-10-13T08:49:48;15.60;83.40
41437;DHT22;27178;49.460;10.850;2022-10-13T08:52:18;15.60;83.30
41437;DHT22;27178;49.460;10.850;2022-10-13T08:54:50;15.70;83.30
41437;DHT22;27178;49.460;10.850;2022-10-13T08:57:19;15.70;83.60
41437;DHT22;27178;49.460;10.850;2022-10-13T08:59:48;15.70;83.40
41437;DHT22;27178;49.460;10.850;2022-10-13T09:02:22;15.80;83.10
41437;DHT22;27178;49.460;10.850;2022-10-13T09:04:52;15.80;83.30
41437;DHT22;27178;49.460;10.850;2022-10-13T09:07:23;15.80;83.10
41437;DHT22;27178;49.460;10.850;2022-10-13T09:09:54;15.90;83.50
41437;DHT22;27178;49.460;10.850;2022-10-13T09:12:24;15.90;83.40
41437;DHT22;27178;49.460;10.850;2022-10-13T09:14:58;15.90;83.50
41437;DHT22;27178;49.460;10.850;2022-10-13T09:17:28;15.90;83.20
41437;DHT22;27178;49.460;10.850;2022-10-13T09:19:59;15.90;83.10
41437;DHT22;27178;49.460;10.850;2022-10-13T09:22:30;15.90;83.10
41437;DHT22;27178;49.460;10.850;2022-10-13T09:25:17;15.90;83.00
41437;DHT22;27178;49.460;10.850;2022-10-13T09:27:49;16.00;83.10
41437;DHT22;27178;49.460;10.850;2022-10-13T09:30:28;16.00;82.90
41437;DHT22;27178;49.460;10.850;2022-10-13T09:33:21;16.00;83.10
41437;DHT22;27178;49.460;10.850;2022-10-13T09:36:09;16.00;83.70
41437;DHT22;27178;49.460;10.850;2022-10-13T09:38:40;16.10;83.30
41437;DHT22;27178;49.460;10.850;2022-10-13T09:41:16;16.10;83.10
41437;DHT22;27178;49.460;10.850;2022-10-13T09:43:59;16.10;83.20
41437;DHT22;27178;49.460;10.850;2022-10-13T09:46:31;16.20;83.70
41437;DHT22;27178;49.460;10.850;2022-10-13T09:49:03;16.20;83.30
41437;DHT22;27178;49.460;10.850;2022-10-13T09:51:35;16.20;83.50
41437;DHT22;27178;49.460;10.850;2022-10-13T09:54:07;16.20;83.20
41437;DHT22;27178;49.460;10.850;2022-10-13T09:56:56;16.30;83.40
41437;DHT22;27178;49.460;10.850;2022-10-13T09:59:30;16.30;83.30
41437;DHT22;27178;49.460;10.850;2022-10-13T10:02:02;16.40;83.30
41437;DHT22;27178;49.460;10.850;2022-10-13T10:04:34;16.40;83.10
41437;DHT22;27178;49.460;10.850;2022-10-13T10:07:10;16.40;83.00
41437;DHT22;27178;49.460;10.850;2022-10-13T10:09:43;16.50;83.10
41437;DHT22;27178;49.460;10.850;2022-10-13T10:12:17;16.50;83.10
41437;DHT22;27178;49.460;10.850;2022-10-13T10:14:53;16.50;83.30
41437;DHT22;27178;49.460;10.850;2022-10-13T10:17:27;16.50;83.00
41437;DHT22;27178;49.460;10.850;2022-10-13T10:20:08;16.60;83.10
41437;DHT22;27178;49.460;10.850;2022-10-13T10:22:47;16.60;83.10
41437;DHT22;27178;49.460;10.850;2022-10-13T10:25:23;16.60;82.70
41437;DHT22;27178;49.460;10.850;2022-10-13T10:28:17;16.70;82.50
41437;DHT22;27178;49.460;10.850;2022-10-13T10:30:55;16.70;82.30
41437;DHT22;27178;49.460;10.850;2022-10-13T10:33:41;16.70;82.20
41437;DHT22;27178;49.460;10.850;2022-10-13T10:36:14;16.80;82.10
41437;DHT22;27178;49.460;10.850;2022-10-13T10:38:49;16.80;82.00
41437;DHT22;27178;49.460;10.850;2022-10-13T10:41:31;16.80;82.00
41437;DHT22;27178;49.460;10.850;2022-10-13T10:44:04;16.90;82.10
41437;DHT22;27178;49.460;10.850;2022-10-13T10:46:38;16.90;82.10
41437;DHT22;27178;49.460;10.850;2022-10-13T10:49:14;16.90;82.00
41437;DHT22;27178;49.460;10.850;2022-10-13T10:51:44;16.90;82.10
41437;DHT22;27178;49.460;10.850;2022-10-13T10:54:25;17.00;82.10
41437;DHT22;27178;49.460;10.850;2022-10-13T10:57:02;17.00;82.10
41437;DHT22;27178;49.460;10.850;2022-10-13T10:59:46;17.00;82.10
41437;DHT22;27178;49.460;10.850;2022-10-13T11:02:29;17.10;82.30
41437;DHT22;27178;49.460;10.850;2022-10-13T11:05:03;17.10;82.10
41437;DHT22;27178;49.460;10.850;2022-10-13T11:07:55;17.20;81.90
41437;DHT22;27178;49.460;10.850;2022-10-13T11:10:24;17.20;81.60
41437;DHT22;27178;49.460;10.850;2022-10-13T11:13:17;17.30;81.70
41437;DHT22;27178;49.460;10.850;2022-10-13T11:15:48;17.30;81.30
41437;DHT22;27178;49.460;10.850;2022-10-13T11:18:58;17.40;81.20
41437;DHT22;27178;49.460;10.850;2022-10-13T11:25:00;17.40;80.70
41437;DHT22;27178;49.460;10.850;2022-10-13T11:27:42;17.50;80.60
41437;DHT22;27178;49.460;10.850;2022-10-13T11:30:40;17.50;80.50
41437;DHT22;27178;49.460;10.850;2022-10-13T11:33:33;17.50;80.30
41437;DHT22;27178;49.460;10.850;2022-10-13T11:39:37;17.60;80.20
41437;DHT22;27178;49.460;10.850;2022-10-13T11:42:31;17.60;80.10
41437;DHT22;27178;49.460;10.850;2022-10-13T11:45:16;17.60;80.00
41437;DHT22;27178;49.460;10.850;2022-10-13T11:50:54;17.70;79.60
41437;DHT22;27178;49.460;10.850;2022-10-13T11:53:31;17.70;79.50
41437;DHT22;27178;49.460;10.850;2022-10-13T11:56:01;17.80;79.50
41437;DHT22;27178;49.460;10.850;2022-10-13T11:58:31;17.80;79.40
41437;DHT22;27178;49.460;10.850;2022-10-13T12:01:01;17.80;79.30
41437;DHT22;27178;49.460;10.850;2022-10-13T12:03:34;17.70;79.20
41437;DHT22;27178;49.460;10.850;2022-10-13T12:06:05;17.80;79.10
41437;DHT22;27178;49.460;10.850;2022-10-13T12:08:35;17.80;79.00
41437;DHT22;27178;49.460;10.850;2022-10-13T12:11:05;17.80;79.10
41437;DHT22;27178;49.460;10.850;2022-10-13T12:13:36;17.80;79.10
41437;DHT22;27178;49.460;10.850;2022-10-13T12:16:05;17.80;79.00
41437;DHT22;27178;49.460;10.850;2022-10-13T12:18:36;17.70;78.90
41437;DHT22;27178;49.460;10.850;2022-10-13T12:21:11;17.80;78.90
41437;DHT22;27178;49.460;10.850;2022-10-13T12:23:40;17.80;78.90
41437;DHT22;27178;49.460;10.850;2022-10-13T12:26:13;17.80;78.90
41437;DHT22;27178;49.460;10.850;2022-10-13T12:28:47;17.80;79.30
41437;DHT22;27178;49.460;10.850;2022-10-13T12:31:18;17.80;78.70
41437;DHT22;27178;49.460;10.850;2022-10-13T12:33:54;17.80;78.80
41437;DHT22;27178;49.460;10.850;2022-10-13T12:36:27;17.80;78.60
41437;DHT22;27178;49.460;10.850;2022-10-13T12:38:59;17.90;78.70
41437;DHT22;27178;49.460;10.850;2022-10-13T12:41:31;17.90;78.70
41437;DHT22;27178;49.460;10.850;2022-10-13T12:43:59;17.90;78.60
41437;DHT22;27178;49.460;10.850;2022-10-13T12:46:39;17.90;78.50
41437;DHT22;27178;49.460;10.850;2022-10-13T12:49:12;17.90;78.30
41437;DHT22;27178;49.460;10.850;2022-10-13T12:51:46;17.90;78.20
41437;DHT22;27178;49.460;10.850;2022-10-13T12:54:21;17.90;78.10
41437;DHT22;27178;49.460;10.850;2022-10-13T12:56:52;18.00;78.20
41437;DHT22;27178;49.460;10.850;2022-10-13T12:59:23;17.90;78.10
41437;DHT22;27178;49.460;10.850;2022-10-13T13:01:58;17.90;77.80
41437;DHT22;27178;49.460;10.850;2022-10-13T13:04:30;18.00;77.80
41437;DHT22;27178;49.460;10.850;2022-10-13T13:07:01;18.00;77.80
41437;DHT22;27178;49.460;10.850;2022-10-13T13:09:30;18.00;77.80
41437;DHT22;27178;49.460;10.850;2022-10-13T13:12:21;18.00;77.70
41437;DHT22;27178;49.460;10.850;2022-10-13T13:14:50;18.00;77.00
41437;DHT22;27178;49.460;10.850;2022-10-13T13:17:30;18.00;77.50
41437;DHT22;27178;49.460;10.850;2022-10-13T13:20:23;18.00;77.10
41437;DHT22;27178;49.460;10.850;2022-10-13T13:22:54;18.00;77.30
41437;DHT22;27178;49.460;10.850;2022-10-13T13:25:22;18.00;77.40
41437;DHT22;27178;49.460;10.850;2022-10-13T13:27:51;18.00;77.40
41437;DHT22;27178;49.460;10.850;2022-10-13T13:30:21;18.00;77.10
41437;DHT22;27178;49.460;10.850;2022-10-13T13:32:50;18.00;77.30
41437;DHT22;27178;49.460;10.850;2022-10-13T13:35:18;18.00;77.20
41437;DHT22;27178;49.460;10.850;2022-10-13T13:37:48;18.00;77.30
41437;DHT22;27178;49.460;10.850;2022-10-13T13:40:20;18.00;77.20
41437;DHT22;27178;49.460;10.850;2022-10-13T13:42:48;18.00;77.10
41437;DHT22;27178;49.460;10.850;2022-10-13T13:45:19;18.00;77.10
41437;DHT22;27178;49.460;10.850;2022-10-13T13:47:48;18.00;77.10
41437;DHT22;27178;49.460;10.850;2022-10-13T13:50:20;18.00;77.10
41437;DHT22;27178;49.460;10.850;2022-10-13T13:52:49;18.00;77.10
41437;DHT22;27178;49.460;10.850;2022-10-13T13:55:19;18.00;77.10
41437;DHT22;27178;49.460;10.850;2022-10-13T13:57:48;18.00;77.00
41437;DHT22;27178;49.460;10.850;2022-10-13T14:00:18;18.00;77.10
41437;DHT22;27178;49.460;10.850;2022-10-13T14:02:47;18.00;77.10
41437;DHT22;27178;49.460;10.850;2022-10-13T14:05:16;18.00;77.20
41437;DHT22;27178;49.460;10.850;2022-10-13T14:07:44;18.00;77.10
41437;DHT22;27178;49.460;10.850;2022-10-13T14:10:13;18.00;77.20
41437;DHT22;27178;49.460;10.850;2022-10-13T14:12:42;18.00;77.30
41437;DHT22;27178;49.460;10.850;2022-10-13T14:15:11;18.00;77.30
41437;DHT22;27178;49.460;10.850;2022-10-13T14:17:39;18.00;77.40
41437;DHT22;27178;49.460;10.850;2022-10-13T14:20:08;18.00;77.50
41437;DHT22;27178;49.460;10.850;2022-10-13T14:22:37;18.00;77.60
41437;DHT22;27178;49.460;10.850;2022-10-13T14:25:06;18.90;78.10
41437;DHT22;27178;49.460;10.850;2022-10-13T14:27:35;18.00;77.50
41437;DHT22;27178;49.460;10.850;2022-10-13T14:30:07;18.00;77.50
41437;DHT22;27178;49.460;10.850;2022-10-13T14:32:36;18.00;77.30
41437;DHT22;27178;49.460;10.850;2022-10-13T14:35:04;18.00;77.30
41437;DHT22;27178;49.460;10.850;2022-10-13T14:37:33;18.00;77.40
41437;DHT22;27178;49.460;10.850;2022-10-13T14:40:02;18.00;77.50
41437;DHT22;27178;49.460;10.850;2022-10-13T14:42:30;18.10;77.50
41437;DHT22;27178;49.460;10.850;2022-10-13T14:44:59;18.10;77.50
41437;DHT22;27178;49.460;10.850;2022-10-13T14:47:31;18.10;77.40
41437;DHT22;27178;49.460;10.850;2022-10-13T14:49:59;18.10;77.50
41437;DHT22;27178;49.460;10.850;2022-10-13T14:52:28;18.10;77.40
41437;DHT22;27178;49.460;10.850;2022-10-13T14:54:56;18.20;77.60
41437;DHT22;27178;49.460;10.850;2022-10-13T14:57:25;18.20;77.60
41437;DHT22;27178;49.460;10.850;2022-10-13T14:59:53;18.20;77.60
41437;DHT22;27178;49.460;10.850;2022-10-13T15:02:29;18.20;77.50
41437;DHT22;27178;49.460;10.850;2022-10-13T15:04:58;18.30;77.40
41437;DHT22;27178;49.460;10.850;2022-10-13T15:07:26;18.30;77.40
41437;DHT22;27178;49.460;10.850;2022-10-13T15:09:54;18.40;78.40
41437;DHT22;27178;49.460;10.850;2022-10-13T15:12:32;18.40;77.60
41437;DHT22;27178;49.460;10.850;2022-10-13T15:15:00;18.50;77.50
41437;DHT22;27178;49.460;10.850;2022-10-13T15:17:30;18.50;77.10
41437;DHT22;27178;49.460;10.850;2022-10-13T15:20:00;18.50;76.90
41437;DHT22;27178;49.460;10.850;2022-10-13T15:22:29;18.60;76.90
41437;DHT22;27178;49.460;10.850;2022-10-13T15:24:57;18.60;76.80
41437;DHT22;27178;49.460;10.850;2022-10-13T15:27:26;18.60;76.60
41437;DHT22;27178;49.460;10.850;2022-10-13T15:29:54;18.60;76.50
41437;DHT22;27178;49.460;10.850;2022-10-13T15:32:22;18.60;76.50
41437;DHT22;27178;49.460;10.850;2022-10-13T15:34:51;18.60;76.50
41437;DHT22;27178;49.460;10.850;2022-10-13T15:37:21;18.60;76.70
41437;DHT22;27178;49.460;10.850;2022-10-13T15:39:50;18.60;76.90
41437;DHT22;27178;49.460;10.850;2022-10-13T15:42:23;18.50;77.00
41437;DHT22;27178;49.460;10.850;2022-10-13T15:44:51;18.50;77.00
41437;DHT22;27178;49.460;10.850;2022-10-13T15:47:37;18.50;77.30
41437;DHT22;27178;49.460;10.850;2022-10-13T15:50:07;18.50;77.30
41437;DHT22;27178;49.460;10.850;2022-10-13T15:52:38;18.50;77.30
41437;DHT22;27178;49.460;10.850;2022-10-13T15:55:08;18.40;77.30
41437;DHT22;27178;49.460;10.850;2022-10-13T15:57:37;18.40;77.30